createdAt,value
2023-02-09T00:00:08.556Z,101848.13
2023-02-09T00:02:43.885Z,101852.25
2023-02-09T00:05:12.604Z,101846.81
2023-02-09T00:07:42.237Z,101850.91
2023-02-09T00:10:11.289Z,101848.81
2023-02-09T00:12:56.893Z,101846.97
2023-02-09T00:15:25.313Z,101846.09
2023-02-09T00:17:53.687Z,101838.22
2023-02-09T00:20:22.255Z,101839.75
2023-02-09T00:22:51.929Z,101839.75
2023-02-09T00:25:20.311Z,101839.75
2023-02-09T00:27:48.670Z,101846.69
2023-02-09T00:30:17.056Z,101841.56
2023-02-09T00:32:46.658Z,101838.06
2023-02-09T00:35:17.169Z,101834.59
2023-02-09T00:37:45.479Z,101837.91
2023-02-09T00:40:16.256Z,101835.22
2023-02-09T00:42:44.622Z,101823.06
2023-02-09T00:45:13.675Z,101817.66
2023-02-09T00:47:42.105Z,101815.06
2023-02-09T00:50:10.751Z,101815.84
2023-02-09T00:52:39.106Z,101823.41
2023-02-09T00:55:08.251Z,101814.63
2023-02-09T00:57:38.006Z,101815.25
2023-02-09T01:00:08.688Z,101818.72
2023-02-09T01:02:38.491Z,101815.88
2023-02-09T01:05:07.805Z,101803.75
2023-02-09T01:07:36.394Z,101807.25
2023-02-09T01:10:05.639Z,101812.25
2023-02-09T01:12:34.114Z,101821.66
2023-02-09T01:15:06.791Z,101815.59
2023-02-09T01:17:35.184Z,101820.75
2023-02-09T01:20:03.692Z,101809.53
2023-02-09T01:22:32.255Z,101815.59
2023-02-09T01:25:00.622Z,101819.84
2023-02-09T01:27:29.003Z,101809.66
2023-02-09T01:29:57.409Z,101798.34
2023-02-09T01:32:27.101Z,101804.09
2023-02-09T01:34:57.042Z,101805.75
2023-02-09T01:37:27.098Z,101806.38
2023-02-09T01:39:55.418Z,101815.03
2023-02-09T01:42:23.736Z,101806.25
2023-02-09T01:45:15.681Z,101809.44
2023-02-09T01:47:49.621Z,101805.94
2023-02-09T01:50:19.029Z,101802.44
2023-02-09T01:52:49.200Z,101804.91
2023-02-09T01:55:21.358Z,101815.22
2023-02-09T01:57:54.525Z,101810.81
2023-02-09T02:00:24.139Z,101814.16
2023-02-09T02:02:57.128Z,101804.59
2023-02-09T02:05:27.585Z,101805.38
2023-02-09T02:08:02.313Z,101802.63
2023-02-09T02:10:30.952Z,101805.22
2023-02-09T02:12:59.718Z,101799.94
2023-02-09T02:15:32.066Z,101801.44
2023-02-09T02:18:18.892Z,101795.41
2023-02-09T02:21:15.613Z,101797.81
2023-02-09T02:23:54.805Z,101806.31
2023-02-09T02:26:49.683Z,101798.44
2023-02-09T02:29:52.576Z,101795.69
2023-02-09T02:32:43.212Z,101797.25
2023-02-09T02:35:17.905Z,101791.31
2023-02-09T02:37:59.043Z,101811.16
2023-02-09T02:40:39.336Z,101798.28
2023-02-09T02:43:17.551Z,101796.63
2023-02-09T02:45:50.256Z,101800.84
2023-02-09T02:48:33.627Z,101792.09
2023-02-09T02:51:05.256Z,101798.78
2023-02-09T02:53:37.982Z,101797.88
2023-02-09T02:56:13.117Z,101801.19
2023-02-09T02:58:45.156Z,101803.63
2023-02-09T03:01:18.436Z,101794.84
2023-02-09T03:03:49.568Z,101798.78
2023-02-09T03:06:18.826Z,101794.41
2023-02-09T03:08:49.534Z,101799.41
2023-02-09T03:11:19.459Z,101798.38
2023-02-09T03:14:26.661Z,101790.66
2023-02-09T03:17:09.031Z,101796.38
2023-02-09T03:19:44.200Z,101801.53
2023-02-09T03:22:17.441Z,101806.56
2023-02-09T03:24:52.675Z,101794.41
2023-02-09T03:27:25.749Z,101804.44
2023-02-09T03:29:58.986Z,101795.66
2023-02-09T03:32:28.980Z,101799.78
2023-02-09T03:34:59.700Z,101789.31
2023-02-09T03:37:28.166Z,101791.72
2023-02-09T03:39:56.597Z,101784.78
2023-02-09T03:42:24.976Z,101778.56
2023-02-09T03:44:53.352Z,101783.59
2023-02-09T03:47:21.643Z,101786.91
2023-02-09T03:49:50.014Z,101791.94
2023-02-09T03:52:19.915Z,101778.00
2023-02-09T03:54:48.877Z,101777.06
2023-02-09T03:57:17.234Z,101776.16
2023-02-09T03:59:45.580Z,101770.13
2023-02-09T04:02:14.289Z,101773.47
2023-02-09T04:04:42.851Z,101770.72
2023-02-09T04:07:12.209Z,101766.34
2023-02-09T04:09:41.944Z,101766.19
2023-02-09T04:12:10.258Z,101760.88
2023-02-09T04:14:38.654Z,101762.44
2023-02-09T04:17:07.016Z,101758.03
2023-02-09T04:19:35.439Z,101751.81
2023-02-09T04:22:04.126Z,101754.41
2023-02-09T04:24:34.318Z,101752.59
2023-02-09T04:27:04.189Z,101754.28
2023-02-09T04:29:32.599Z,101754.09
2023-02-09T04:32:01.057Z,101755.63
2023-02-09T04:34:29.443Z,101752.16
2023-02-09T04:36:57.774Z,101744.28
2023-02-09T04:39:26.182Z,101737.50
2023-02-09T04:41:54.526Z,101741.69
2023-02-09T04:44:24.239Z,101739.75
2023-02-09T04:46:52.597Z,101737.03
2023-02-09T04:49:20.963Z,101731.00
2023-02-09T04:51:49.386Z,101724.91
2023-02-09T04:54:17.759Z,101731.72
2023-02-09T04:56:46.140Z,101725.53
2023-02-09T04:59:43.356Z,101730.53
2023-02-09T05:02:13.836Z,101733.13
2023-02-09T05:04:42.301Z,101724.34
2023-02-09T05:07:10.602Z,101737.19
2023-02-09T05:09:39.006Z,101729.50
2023-02-09T05:12:10.043Z,101732.06
2023-02-09T05:14:38.366Z,101724.06
2023-02-09T05:17:06.705Z,101716.34
2023-02-09T05:19:36.664Z,101729.19
2023-02-09T05:22:05.074Z,101726.47
2023-02-09T05:24:33.479Z,101724.66
2023-02-09T05:27:01.918Z,101726.34
2023-02-09T05:29:30.358Z,101731.47
2023-02-09T05:31:58.691Z,101739.94
2023-02-09T05:34:27.078Z,101747.47
2023-02-09T05:36:56.804Z,101739.66
2023-02-09T05:39:25.256Z,101746.47
2023-02-09T05:42:11.108Z,101738.75
2023-02-09T05:44:39.441Z,101731.75
2023-02-09T05:47:07.856Z,101724.81
2023-02-09T05:49:36.200Z,101722.09
2023-02-09T05:52:06.271Z,101721.19
2023-02-09T05:54:34.955Z,101720.28
2023-02-09T05:57:03.405Z,101711.50
2023-02-09T05:59:31.816Z,101709.72
2023-02-09T06:02:00.607Z,101705.19
2023-02-09T06:04:29.645Z,101709.41
2023-02-09T06:06:58.306Z,101717.88
2023-02-09T06:09:28.554Z,101710.94
2023-02-09T06:11:57.022Z,101722.72
2023-02-09T06:14:25.541Z,101710.63
2023-02-09T06:16:53.861Z,101706.41
2023-02-09T06:19:22.417Z,101703.66
2023-02-09T06:21:50.796Z,101721.50
2023-02-09T06:24:19.204Z,101731.78
2023-02-09T06:26:49.033Z,101736.19
2023-02-09T06:29:17.400Z,101742.06
2023-02-09T06:31:45.837Z,101743.91
2023-02-09T06:34:14.689Z,101738.59
2023-02-09T06:36:43.031Z,101736.03
2023-02-09T06:39:11.857Z,101748.13
2023-02-09T06:41:40.453Z,101737.81
2023-02-09T06:44:11.303Z,101736.94
2023-02-09T06:46:40.148Z,101740.28
2023-02-09T06:49:08.462Z,101753.84
2023-02-09T06:51:36.895Z,101755.53
2023-02-09T06:54:05.582Z,101763.25
2023-02-09T06:56:33.938Z,101755.41
2023-02-09T06:59:02.356Z,101761.44
2023-02-09T07:01:32.173Z,101763.13
2023-02-09T07:04:00.582Z,101752.06
2023-02-09T07:06:29.080Z,101754.47
2023-02-09T07:08:57.652Z,101764.75
2023-02-09T07:11:28.982Z,101764.75
2023-02-09T07:13:57.335Z,101776.88
2023-02-09T07:16:25.802Z,101784.56
2023-02-09T07:18:55.597Z,101782.00
2023-02-09T07:21:23.945Z,101787.16
2023-02-09T07:23:53.271Z,101776.88
2023-02-09T07:26:21.628Z,101764.00
2023-02-09T07:28:50.012Z,101774.44
2023-02-09T07:31:18.725Z,101766.88
2023-02-09T07:33:47.660Z,101771.25
2023-02-09T07:36:18.076Z,101767.16
2023-02-09T07:38:47.015Z,101768.09
2023-02-09T07:41:18.191Z,101755.53
2023-02-09T07:43:46.867Z,101753.09
2023-02-09T07:46:17.635Z,101756.91
2023-02-09T07:48:46.384Z,101762.34
2023-02-09T07:51:17.018Z,101768.66
2023-02-09T07:53:45.398Z,101769.00
2023-02-09T07:56:14.032Z,101767.78
2023-02-09T07:58:42.439Z,101761.13
2023-02-09T08:01:13.773Z,101761.41
2023-02-09T08:03:45.385Z,101766.06
2023-02-09T08:06:25.993Z,101768.97
2023-02-09T08:09:00.904Z,101778.66
2023-02-09T08:11:33.155Z,101780.59
2023-02-09T08:14:06.182Z,101777.56
2023-02-09T08:16:36.245Z,101765.00
2023-02-09T08:19:07.343Z,101770.44
2023-02-09T08:21:39.836Z,101769.97
2023-02-09T08:24:10.236Z,101772.84
2023-02-09T08:26:41.530Z,101776.78
2023-02-09T08:29:11.582Z,101787.34
2023-02-09T08:31:42.843Z,101795.53
2023-02-09T08:34:11.228Z,101785.34
2023-02-09T08:36:41.483Z,101797.75
2023-02-09T08:39:10.532Z,101810.03
2023-02-09T08:41:39.029Z,101802.75
2023-02-09T08:44:07.379Z,101810.91
2023-02-09T08:46:36.458Z,101816.34
2023-02-09T08:49:04.934Z,101824.53
2023-02-09T08:51:33.270Z,101821.44
2023-02-09T08:54:02.975Z,101818.41
2023-02-09T08:56:33.230Z,101815.38
2023-02-09T08:59:01.612Z,101813.25
2023-02-09T09:01:32.139Z,101816.22
2023-02-09T09:04:00.616Z,101819.88
2023-02-09T09:06:29.112Z,101827.13
2023-02-09T09:08:57.475Z,101826.66
2023-02-09T09:11:28.124Z,101822.84
2023-02-09T09:13:56.671Z,101824.19
2023-02-09T09:16:25.059Z,101833.25
2023-02-09T09:18:53.671Z,101829.44
2023-02-09T09:21:22.049Z,101828.94
2023-02-09T09:23:50.502Z,101838.78
2023-02-09T09:26:21.792Z,101832.38
2023-02-09T09:28:52.364Z,101841.44
2023-02-09T09:31:21.166Z,101843.56
2023-02-09T09:33:49.654Z,101845.63
2023-02-09T09:36:18.025Z,101839.75
2023-02-09T09:38:46.333Z,101840.16
2023-02-09T09:41:21.892Z,101835.44
2023-02-09T09:43:52.516Z,101832.25
2023-02-09T09:46:27.415Z,101831.00
2023-02-09T09:48:58.274Z,101831.25
2023-02-09T09:51:38.222Z,101831.69
2023-02-09T09:54:14.373Z,101841.50
2023-02-09T09:56:42.883Z,101848.91
2023-02-09T09:59:17.776Z,101839.00
2023-02-09T10:01:46.611Z,101840.19
2023-02-09T10:04:17.052Z,101836.19
2023-02-09T10:06:47.519Z,101830.56
2023-02-09T10:09:29.969Z,101832.16
2023-02-09T10:12:16.077Z,101839.53
2023-02-09T10:14:45.758Z,101831.47
2023-02-09T10:17:14.100Z,101823.34
2023-02-09T10:19:42.472Z,101827.50
2023-02-09T10:22:13.731Z,101808.31
2023-02-09T10:24:42.114Z,101816.59
2023-02-09T10:27:16.485Z,101802.56
2023-02-09T10:29:46.218Z,101808.28
2023-02-09T10:32:21.027Z,101801.19
2023-02-09T10:34:50.698Z,101807.78
2023-02-09T10:37:22.687Z,101796.31
2023-02-09T10:40:00.279Z,101817.50
2023-02-09T10:42:32.075Z,101812.72
2023-02-09T10:45:10.131Z,101812.38
2023-02-09T10:47:38.464Z,101806.69
2023-02-09T10:50:18.575Z,101810.56
2023-02-09T10:53:00.400Z,101802.31
2023-02-09T10:55:36.363Z,101796.75
2023-02-09T10:58:07.469Z,101791.84
2023-02-09T11:00:44.253Z,101793.28
2023-02-09T11:03:19.048Z,101786.03
2023-02-09T11:05:48.911Z,101803.88
2023-02-09T11:08:20.605Z,101802.56
2023-02-09T11:11:00.146Z,101805.56
2023-02-09T11:13:30.896Z,101796.38
2023-02-09T11:16:37.961Z,101788.38
2023-02-09T11:19:11.487Z,101790.56
2023-02-09T11:21:55.795Z,101792.75
2023-02-09T11:24:35.750Z,101780.28
2023-02-09T11:27:14.405Z,101779.03
2023-02-09T11:29:49.522Z,101777.72
2023-02-09T11:32:21.363Z,101779.91
2023-02-09T11:35:05.164Z,101786.22
2023-02-09T11:37:41.360Z,101797.09
2023-02-09T11:40:22.320Z,101789.06
2023-02-09T11:43:00.232Z,101780.97
2023-02-09T11:45:33.739Z,101785.09
2023-02-09T11:48:07.004Z,101787.41
2023-02-09T11:50:45.341Z,101780.91
2023-02-09T11:53:22.352Z,101773.53
2023-02-09T11:55:56.329Z,101777.91
2023-02-09T11:58:47.548Z,101761.84
2023-02-09T12:01:30.784Z,101760.50
2023-02-09T12:04:11.217Z,101761.66
2023-02-09T12:06:45.392Z,101761.13
2023-02-09T12:09:44.659Z,101750.19
2023-02-09T12:12:24.046Z,101771.44
2023-02-09T12:15:02.469Z,101778.63
2023-02-09T12:17:40.960Z,101774.47
2023-02-09T12:20:27.496Z,101777.06
2023-02-09T12:23:02.518Z,101768.53
2023-02-09T12:25:50.279Z,101740.13
2023-02-09T12:28:43.814Z,101748.16
2023-02-09T12:31:19.585Z,101759.66
2023-02-09T12:34:12.398Z,101764.53
2023-02-09T12:37:16.619Z,101771.13
2023-02-09T12:40:21.073Z,101775.66
2023-02-09T12:43:21.871Z,101772.38
2023-02-09T12:46:20.136Z,101775.19
2023-02-09T12:49:00.653Z,101772.03
2023-02-09T12:51:42.523Z,101774.75
2023-02-09T12:54:46.115Z,101767.13
2023-02-09T12:57:54.114Z,101768.25
2023-02-09T13:00:57.355Z,101759.91
2023-02-09T13:03:27.723Z,101766.22
2023-02-09T13:06:00.766Z,101768.97
2023-02-09T13:08:37.659Z,101774.50
2023-02-09T13:11:19.129Z,101774.06
2023-02-09T13:13:53.334Z,101754.56
2023-02-09T13:17:00.136Z,101756.59
2023-02-09T13:19:48.774Z,101748.25
2023-02-09T13:22:28.608Z,101745.09
2023-02-09T13:25:00.935Z,101741.97
2023-02-09T13:27:30.726Z,101737.88
2023-02-09T13:30:00.421Z,101742.41
2023-02-09T13:32:42.269Z,101739.34
2023-02-09T13:35:19.525Z,101742.28
2023-02-09T13:37:50.330Z,101745.34
2023-02-09T13:40:23.909Z,101742.97
2023-02-09T13:42:56.233Z,101732.81
2023-02-09T13:45:26.706Z,101739.25
2023-02-09T13:47:59.106Z,101735.97
2023-02-09T13:50:31.776Z,101728.53
2023-02-09T13:53:10.124Z,101727.97
2023-02-09T13:55:40.806Z,101729.19
2023-02-09T13:58:15.480Z,101744.41
2023-02-09T14:00:44.700Z,101737.88
2023-02-09T14:03:21.539Z,101742.75
2023-02-09T14:05:54.851Z,101742.19
2023-02-09T14:08:24.723Z,101738.78
2023-02-09T14:10:57.994Z,101739.22
2023-02-09T14:13:30.779Z,101742.50
2023-02-09T14:16:10.059Z,101745.72
2023-02-09T14:18:54.760Z,101746.88
2023-02-09T14:21:27.142Z,101749.00
2023-02-09T14:24:30.150Z,101748.41
2023-02-09T14:27:04.700Z,101745.81
2023-02-09T14:29:35.987Z,101745.91
2023-02-09T14:32:32.022Z,101758.81
2023-02-09T14:35:17.314Z,101754.41
2023-02-09T14:37:46.357Z,101743.91
2023-02-09T14:40:23.030Z,101755.97
2023-02-09T14:43:01.559Z,101749.78
2023-02-09T14:45:40.389Z,101757.47
2023-02-09T14:48:19.621Z,101751.16
2023-02-09T14:50:51.018Z,101751.81
2023-02-09T14:53:19.777Z,101751.63
2023-02-09T14:55:48.814Z,101743.47
2023-02-09T14:58:22.099Z,101745.09
2023-02-09T15:00:54.112Z,101748.47
2023-02-09T15:03:22.807Z,101746.56
2023-02-09T15:05:55.664Z,101740.34
2023-02-09T15:08:26.532Z,101753.25
2023-02-09T15:10:57.700Z,101767.81
2023-02-09T15:13:27.589Z,101766.81
2023-02-09T15:15:55.993Z,101757.97
2023-02-09T15:18:26.412Z,101753.59
2023-02-09T15:20:56.240Z,101765.56
2023-02-09T15:23:24.678Z,101761.69
2023-02-09T15:25:53.003Z,101769.28
2023-02-09T15:28:28.253Z,101766.47
2023-02-09T15:30:57.273Z,101768.13
2023-02-09T15:33:26.528Z,101774.81
2023-02-09T15:35:59.006Z,101785.97
2023-02-09T15:38:28.201Z,101774.59
2023-02-09T15:41:14.203Z,101777.06
2023-02-09T15:44:00.053Z,101778.56
2023-02-09T15:46:42.529Z,101773.13
2023-02-09T15:49:10.912Z,101775.41
2023-02-09T15:51:41.170Z,101781.91
2023-02-09T15:54:14.552Z,101780.81
2023-02-09T15:56:42.897Z,101776.97
2023-02-09T15:59:19.217Z,101786.09
2023-02-09T16:01:48.716Z,101784.84
2023-02-09T16:04:17.096Z,101785.41
2023-02-09T16:06:49.671Z,101788.59
2023-02-09T16:09:20.312Z,101788.22
2023-02-09T16:11:49.227Z,101803.56
2023-02-09T16:14:20.555Z,101801.31
2023-02-09T16:16:49.659Z,101811.19
2023-02-09T16:19:18.077Z,101816.03
2023-02-09T16:21:51.399Z,101818.16
2023-02-09T16:24:31.289Z,101828.06
2023-02-09T16:27:00.400Z,101838.78
2023-02-09T16:29:28.828Z,101834.78
2023-02-09T16:31:57.206Z,101841.16
2023-02-09T16:34:25.616Z,101850.94
2023-02-09T16:36:55.324Z,101847.75
2023-02-09T16:39:23.860Z,101854.91
2023-02-09T16:41:53.060Z,101851.72
2023-02-09T16:44:23.345Z,101861.59
2023-02-09T16:46:53.792Z,101867.97
2023-02-09T16:49:32.769Z,101865.00
2023-02-09T16:52:06.898Z,101865.53
2023-02-09T16:54:42.598Z,101861.66
2023-02-09T16:57:14.122Z,101875.19
2023-02-09T16:59:42.515Z,101880.09
2023-02-09T17:02:32.760Z,101890.22
2023-02-09T17:05:03.280Z,101893.34
2023-02-09T17:07:45.392Z,101896.44
2023-02-09T17:10:24.419Z,101901.25
2023-02-09T17:12:53.831Z,101902.69
2023-02-09T17:15:30.780Z,101900.63
2023-02-09T17:18:03.860Z,101905.56
2023-02-09T17:20:38.438Z,101900.75
2023-02-09T17:23:08.146Z,101902.97
2023-02-09T17:25:36.512Z,101900.75
2023-02-09T17:28:05.569Z,101901.16
2023-02-09T17:30:34.509Z,101902.31
2023-02-09T17:33:05.666Z,101903.50
2023-02-09T17:36:10.076Z,101904.66
2023-02-09T17:38:31.985Z,101916.94
2023-02-09T17:41:02.930Z,101919.78
2023-02-09T17:43:31.350Z,101917.44
2023-02-09T17:45:59.756Z,101925.44
2023-02-09T17:48:28.112Z,101918.84
2023-02-09T17:51:00.153Z,101926.22
2023-02-09T17:53:33.894Z,101920.50
2023-02-09T17:56:02.620Z,101916.59
2023-02-09T17:58:30.964Z,101918.81
2023-02-09T18:00:59.331Z,101917.38
2023-02-09T18:03:27.662Z,101925.63
2023-02-09T18:05:58.332Z,101921.72
2023-02-09T18:08:27.307Z,101936.72
2023-02-09T18:10:58.585Z,101930.22
2023-02-09T18:13:27.667Z,101932.50
2023-02-09T18:15:56.453Z,101927.06
2023-02-09T18:18:24.749Z,101936.50
2023-02-09T18:20:53.029Z,101929.41
2023-02-09T18:23:22.931Z,101941.28
2023-02-09T18:25:51.577Z,101937.78
2023-02-09T18:28:21.274Z,101933.50
2023-02-09T18:30:49.690Z,101945.69
2023-02-09T18:33:18.811Z,101947.50
2023-02-09T18:35:47.480Z,101944.13
2023-02-09T18:38:16.259Z,101944.28
2023-02-09T18:40:45.040Z,101950.47
2023-02-09T18:43:15.293Z,101959.13
2023-02-09T18:45:45.673Z,101962.00
2023-02-09T18:48:14.259Z,101964.09
2023-02-09T18:50:42.607Z,101965.88
2023-02-09T18:53:12.792Z,101959.34
2023-02-09T18:55:41.134Z,101973.31
2023-02-09T18:58:10.274Z,101977.06
2023-02-09T19:00:38.900Z,101979.00
2023-02-09T19:03:08.632Z,101982.75
2023-02-09T19:05:37.105Z,101987.28
2023-02-09T19:08:07.287Z,101991.84
2023-02-09T19:10:36.047Z,101994.69
2023-02-09T19:13:05.463Z,101992.38
2023-02-09T19:15:35.607Z,101996.00
2023-02-09T19:18:04.275Z,101997.06
2023-02-09T19:20:34.968Z,101990.31
2023-02-09T19:23:03.883Z,101993.19
2023-02-09T19:25:33.217Z,101992.56
2023-02-09T19:28:01.946Z,101996.19
2023-02-09T19:30:30.358Z,101993.72
2023-02-09T19:32:59.989Z,101993.97
2023-02-09T19:35:29.359Z,101997.63
2023-02-09T19:37:59.552Z,102004.75
2023-02-09T19:40:35.459Z,102011.84
2023-02-09T19:43:04.851Z,102008.53
2023-02-09T19:45:36.494Z,102022.47
2023-02-09T19:48:05.502Z,102027.00
2023-02-09T19:50:34.292Z,102027.16
2023-02-09T19:53:04.572Z,102020.44
2023-02-09T19:55:33.514Z,102021.47
2023-02-09T19:58:01.953Z,102017.34
2023-02-09T20:00:31.101Z,102018.38
2023-02-09T20:02:59.431Z,102022.00
2023-02-09T20:05:27.829Z,102022.16
2023-02-09T20:07:57.101Z,102017.09
2023-02-09T20:10:26.919Z,102020.72
2023-02-09T20:12:55.255Z,102019.19
2023-02-09T20:15:23.667Z,102028.88
2023-02-09T20:17:52.250Z,102031.63
2023-02-09T20:20:20.922Z,102038.59
2023-02-09T20:22:51.165Z,102040.69
2023-02-09T20:25:19.696Z,102033.97
2023-02-09T20:27:50.623Z,102037.56
2023-02-09T20:30:19.565Z,102041.19
2023-02-09T20:32:47.927Z,102037.84
2023-02-09T20:35:16.444Z,102037.22
2023-02-09T20:37:44.966Z,102042.38
2023-02-09T20:40:14.210Z,102051.97
2023-02-09T20:43:00.028Z,102045.09
2023-02-09T20:45:47.072Z,102060.63
2023-02-09T20:48:15.591Z,102062.31
2023-02-09T20:50:45.258Z,102055.44
2023-02-09T20:53:14.115Z,102051.06
2023-02-09T20:55:42.833Z,102056.22
2023-02-09T20:58:13.514Z,102051.81
2023-02-09T21:00:44.201Z,102062.16
2023-02-09T21:03:12.618Z,102051.56
2023-02-09T21:05:41.010Z,102050.66
2023-02-09T21:08:09.531Z,102058.28
2023-02-09T21:10:38.476Z,102050.50
2023-02-09T21:13:08.361Z,102055.69
2023-02-09T21:15:41.595Z,102057.38
2023-02-09T21:18:11.358Z,102048.72
2023-02-09T21:20:39.804Z,102049.50
2023-02-09T21:23:08.148Z,102038.22
2023-02-09T21:25:36.918Z,102042.50
2023-02-09T21:28:05.479Z,102046.91
2023-02-09T21:30:33.873Z,102048.72
2023-02-09T21:33:02.304Z,102042.75
2023-02-09T21:35:32.020Z,102041.84
2023-02-09T21:38:00.451Z,102042.75
2023-02-09T21:40:28.796Z,102047.03
2023-02-09T21:42:57.116Z,102047.03
2023-02-09T21:45:26.304Z,102037.47
2023-02-09T21:47:54.708Z,102040.03
2023-02-09T21:50:23.163Z,102044.31
2023-02-09T21:52:54.594Z,102039.91
2023-02-09T21:55:23.323Z,102037.31
2023-02-09T21:57:51.874Z,102034.59
2023-02-09T22:00:20.577Z,102029.44
2023-02-09T22:02:52.987Z,102036.25
2023-02-09T22:05:21.596Z,102034.47
2023-02-09T22:07:50.658Z,102031.88
2023-02-09T22:10:20.489Z,102024.91
2023-02-09T22:12:49.770Z,102027.50
2023-02-09T22:15:19.130Z,102037.06
2023-02-09T22:17:48.352Z,102032.78
2023-02-09T22:20:16.829Z,102040.69
2023-02-09T22:22:46.100Z,102040.69
2023-02-09T22:25:14.393Z,102044.81
2023-02-09T22:27:44.019Z,102043.13
2023-02-09T22:30:13.236Z,102053.47
2023-02-09T22:32:41.613Z,102049.22
2023-02-09T22:35:10.005Z,102056.22
2023-02-09T22:37:38.357Z,102049.34
2023-02-09T22:40:07.331Z,102059.84
2023-02-09T22:42:36.377Z,102064.09
2023-02-09T22:45:07.409Z,102061.66
2023-02-09T22:47:35.807Z,102061.66
2023-02-09T22:50:04.318Z,102061.66
2023-02-09T22:52:32.651Z,102064.25
2023-02-09T22:55:01.110Z,102062.56
2023-02-09T22:57:29.477Z,102063.44
2023-02-09T22:59:57.877Z,102076.41
2023-02-09T23:02:27.635Z,102076.41
2023-02-09T23:04:55.968Z,102066.03
2023-02-09T23:07:24.373Z,102065.28
2023-02-09T23:09:52.726Z,102063.44
2023-02-09T23:12:21.142Z,102066.84
2023-02-09T23:14:49.455Z,102062.44
2023-02-09T23:17:17.790Z,102074.75
2023-02-09T23:19:47.750Z,102064.38
2023-02-09T23:22:16.141Z,102065.13
2023-02-09T23:24:44.500Z,102066.97
2023-02-09T23:27:12.817Z,102067.88
2023-02-09T23:29:41.099Z,102071.22
2023-02-09T23:32:09.469Z,102077.44
2023-02-09T23:34:37.837Z,102072.25
2023-02-09T23:37:18.134Z,102075.91
2023-02-09T23:39:52.029Z,102081.06
2023-02-09T23:42:20.354Z,102079.28
2023-02-09T23:44:48.701Z,102081.06
2023-02-09T23:47:17.158Z,102086.41
2023-02-09T23:49:45.532Z,102090.66
2023-02-09T23:52:15.279Z,102097.66
2023-02-09T23:54:43.841Z,102103.59
2023-02-09T23:57:12.324Z,102110.47
2023-02-09T23:59:40.666Z,102111.34
